Portada
METAR-TAF:

METAR-TAF

Aeroports :

Aeroport Internacional de Kansai

Kansai, Japó

latitud: 34-25N, longitud: 135-15E, altitud: 5 m

Observació

L'informe es va fer fa 17 minuts, a les 16:30 UTC
Vent 22 kt del Nord-Oest
Temperatura 18°C
Humitat 73%
Pressió 1012 hPa
Visibilitat 10 km o més
Escasses núvols a una alçada de 2200 ft
Núvols disperses a una alçada de 4000 ft
Cel ennuvolat a una alçada de 4300 ft

METAR: RJBB 181630Z AUTO 31022KT 9999 FEW022 SCT040 BKN043 18/13 Q1012 NOSIG

Hora: 01:47 (16:47 UTC)

Pronòstic

L'informe es va fer fa 5 hores i 38 minuts, a les 11:09 UTC
Pronòstic vàlid del 18 a les 12 UTC al 19 a les 18 UTC
Vent 20 kt del Nord-Oest
Visibilitat 10 km o més
Escasses núvols a una alçada de 1500 ft
Núvols disperses a una alçada de 4500 ft

TAF: RJBB 181109Z 1812/1918 31020KT 9999 FEW015 SCT045

Observacions i pronòstics meteorològics de més de 4000 aeroports (METAR i TAF).

Les estacions disponibles són els punts grocs i vermells al mapa.

Posi el ratolí al punt desitjat per veure el nom de l'estació.

Feu clic per veure les observacions i els pronòstics meteorològics.

Per canviar el mapa: feu clic els botons verds amb una creu de color negre per apropar; al botó verd amb un guió per allunyar la imatge; o en les fletxes verdes per a mapes adjacents.


METAR-TAF: